Time,TemperatureF,DewpointF,PressureIn,WindDirection,WindDirectionDegrees,WindSpeedMPH,WindSpeedGustMPH,Humidity,HourlyPrecipIn,Conditions,Clouds,dailyrainin,SoftwareType,DateUTC
2013-03-25 00:00:00,34.0,21.6,29.75,North,-999,0.0,0.0,60,0.00,,,-99.99,WeatherLink 5.5,2013-03-25 04:00:00,
2013-03-25 00:15:00,33.4,21.4,29.75,North,-999,0.0,0.0,61,0.00,,,-99.99,WeatherLink 5.5,2013-03-25 04:15:00,
2013-03-25 00:30:00,32.8,21.2,29.75,North,-999,0.0,0.0,62,0.00,,,-99.99,WeatherLink 5.5,2013-03-25 04:30:00,
2013-03-25 00:45:00,32.2,21.4,29.75,North,-999,0.0,0.0,64,0.00,,,-99.99,WeatherLink 5.5,2013-03-25 04:45:00,
2013-03-25 01:00:00,31.8,21.4,29.74,North,-999,0.0,0.0,65,0.00,,,-99.99,WeatherLink 5.5,2013-03-25 05:00:00,
2013-03-25 01:15:00,31.3,20.5,29.74,North,-999,0.0,0.0,64,0.00,,,-99.99,WeatherLink 5.5,2013-03-25 05:15:00,
2013-03-25 01:30:00,31.2,21.2,29.74,North,-999,0.0,0.0,66,0.00,,,-99.99,WeatherLink 5.5,2013-03-25 05:30:00,
2013-03-25 01:45:00,30.7,21.0,29.73,North,-999,0.0,0.0,67,0.00,,,-99.99,WeatherLink 5.5,2013-03-25 05:45:00,
2013-03-25 02:00:00,30.4,21.1,29.73,North,-999,0.0,0.0,68,0.00,,,-99.99,WeatherLink 5.5,2013-03-25 06:00:00,
2013-03-25 02:15:00,30.3,20.6,29.73,North,-999,0.0,0.0,67,0.00,,,-99.99,WeatherLink 5.5,2013-03-25 06:15:00,
2013-03-25 02:30:00,30.1,20.5,29.73,North,-999,0.0,0.0,67,0.00,,,-99.99,WeatherLink 5.5,2013-03-25 06:30:00,
2013-03-25 02:45:00,29.5,20.6,29.73,North,-999,0.0,0.0,69,0.00,,,-99.99,WeatherLink 5.5,2013-03-25 06:45:00,
2013-03-25 03:00:00,29.1,20.5,29.72,North,-999,0.0,0.0,70,0.00,,,-99.99,WeatherLink 5.5,2013-03-25 07:00:00,
2013-03-25 03:15:00,28.8,20.2,29.72,North,-999,0.0,0.0,70,0.00,,,-99.99,WeatherLink 5.5,2013-03-25 07:15:00,
2013-03-25 03:30:00,28.5,20.3,29.72,North,-999,0.0,0.0,71,0.00,,,-99.99,WeatherLink 5.5,2013-03-25 07:30:00,
2013-03-25 03:45:00,28.4,20.2,29.72,North,-999,0.0,0.0,71,0.00,,,-99.99,WeatherLink 5.5,2013-03-25 07:45:00,
2013-03-25 04:00:00,28.1,20.2,29.72,North,-999,0.0,0.0,72,0.00,,,-99.99,WeatherLink 5.5,2013-03-25 08:00:00,
2013-03-25 04:15:00,27.9,20.0,29.72,North,-999,0.0,0.0,72,0.00,,,-99.99,WeatherLink 5.5,2013-03-25 08:15:00,
2013-03-25 04:30:00,27.6,20.1,29.71,North,-999,0.0,0.0,73,0.00,,,-99.99,WeatherLink 5.5,2013-03-25 08:30:00,
2013-03-25 04:45:00,27.5,20.0,29.70,North,-999,0.0,0.0,73,0.00,,,-99.99,WeatherLink 5.5,2013-03-25 08:45:00,
2013-03-25 05:00:00,27.5,20.3,29.70,North,-999,0.0,0.0,74,0.00,,,-99.99,WeatherLink 5.5,2013-03-25 09:00:00,
2013-03-25 05:15:00,27.3,20.1,29.70,North,-999,0.0,0.0,74,0.00,,,-99.99,WeatherLink 5.5,2013-03-25 09:15:00,
2013-03-25 05:30:00,27.0,19.8,29.70,North,-999,0.0,0.0,74,0.00,,,-99.99,WeatherLink 5.5,2013-03-25 09:30:00,
2013-03-25 05:45:00,26.9,19.7,29.69,North,-999,0.0,0.0,74,0.00,,,-99.99,WeatherLink 5.5,2013-03-25 09:45:00,
2013-03-25 06:00:00,26.7,19.5,29.69,North,-999,0.0,0.0,74,0.00,,,-99.99,WeatherLink 5.5,2013-03-25 10:00:00,
2013-03-25 06:15:00,26.7,19.5,29.69,North,-999,0.0,0.0,74,0.00,,,-99.99,WeatherLink 5.5,2013-03-25 10:15:00,
2013-03-25 06:30:00,26.9,19.7,29.69,North,-999,0.0,0.0,74,0.00,,,-99.99,WeatherLink 5.5,2013-03-25 10:30:00,
2013-03-25 06:45:00,27.0,19.5,29.68,North,-999,0.0,0.0,73,0.00,,,-99.99,WeatherLink 5.5,2013-03-25 10:45:00,
2013-03-25 07:00:00,27.3,19.5,29.68,North,-999,0.0,0.0,72,0.00,,,-99.99,WeatherLink 5.5,2013-03-25 11:00:00,
2013-03-25 07:15:00,27.5,19.3,29.68,North,-999,0.0,0.0,71,0.00,,,-99.99,WeatherLink 5.5,2013-03-25 11:15:00,
2013-03-25 07:30:00,27.9,19.4,29.68,North,-999,0.0,0.0,70,0.00,,,-99.99,WeatherLink 5.5,2013-03-25 11:30:00,
2013-03-25 07:45:00,28.5,19.3,29.69,North,-999,0.0,0.0,68,0.00,,,-99.99,WeatherLink 5.5,2013-03-25 11:45:00,
2013-03-25 08:00:00,29.2,19.2,29.69,West,270,0.0,1.0,66,0.00,,,-99.99,WeatherLink 5.5,2013-03-25 12:00:00,
2013-03-25 08:15:00,29.8,19.1,29.69,North,-999,0.0,0.0,64,0.00,,,-99.99,WeatherLink 5.5,2013-03-25 12:15:00,
2013-03-25 08:30:00,30.6,19.5,29.69,West,270,0.0,1.0,63,0.00,,,-99.99,WeatherLink 5.5,2013-03-25 12:30:00,
2013-03-25 08:45:00,31.3,19.4,29.69,West,270,0.0,1.0,61,0.00,,,-99.99,WeatherLink 5.5,2013-03-25 12:45:00,
2013-03-25 09:00:00,32.1,19.8,29.69,West,270,0.0,1.0,60,0.00,,,-99.99,WeatherLink 5.5,2013-03-25 13:00:00,
2013-03-25 09:15:00,32.9,20.1,29.69,West,270,0.0,4.0,59,0.00,,,-99.99,WeatherLink 5.5,2013-03-25 13:15:00,
2013-03-25 09:30:00,34.1,20.4,29.68,West,270,1.0,6.0,57,0.00,,,-99.99,WeatherLink 5.5,2013-03-25 13:30:00,
2013-03-25 09:45:00,35.2,21.1,29.68,North,0,1.0,4.0,56,0.00,,,-99.99,WeatherLink 5.5,2013-03-25 13:45:00,
2013-03-25 10:00:00,36.0,21.8,29.67,NNE,22,2.0,8.0,56,0.00,,,-99.99,WeatherLink 5.5,2013-03-25 14:00:00,
2013-03-25 10:15:00,36.7,22.0,29.67,NNE,22,0.0,2.0,55,0.00,,,-99.99,WeatherLink 5.5,2013-03-25 14:15:00,
2013-03-25 10:30:00,37.9,23.6,29.66,NNE,22,1.0,6.0,56,0.00,,,-99.99,WeatherLink 5.5,2013-03-25 14:30:00,
2013-03-25 10:45:00,38.6,23.8,29.65,North,0,2.0,7.0,55,0.00,,,-99.99,WeatherLink 5.5,2013-03-25 14:45:00,
2013-03-25 11:00:00,38.8,24.0,29.65,NNE,22,3.0,8.0,55,0.00,,,-99.99,WeatherLink 5.5,2013-03-25 15:00:00,
2013-03-25 11:15:00,38.8,23.6,29.64,ENE,67,5.0,10.0,54,0.00,,,-99.99,WeatherLink 5.5,2013-03-25 15:15:00,
2013-03-25 11:30:00,39.5,23.8,29.64,ENE,67,4.0,10.0,53,0.00,,,-99.99,WeatherLink 5.5,2013-03-25 15:30:00,
2013-03-25 11:45:00,39.9,23.7,29.64,NE,45,4.0,9.0,52,0.00,,,-99.99,WeatherLink 5.5,2013-03-25 15:45:00,
2013-03-25 12:00:00,40.2,24.0,29.64,NE,45,6.0,10.0,52,0.00,,,-99.99,WeatherLink 5.5,2013-03-25 16:00:00,
2013-03-25 12:15:00,41.8,24.0,29.63,NNE,22,2.0,8.0,49,0.00,,,-99.99,WeatherLink 5.5,2013-03-25 16:15:00,
2013-03-25 12:30:00,41.2,23.9,29.62,ENE,67,3.0,10.0,50,0.00,,,-99.99,WeatherLink 5.5,2013-03-25 16:30:00,
2013-03-25 12:45:00,41.6,23.8,29.62,ENE,67,3.0,13.0,49,0.00,,,-99.99,WeatherLink 5.5,2013-03-25 16:45:00,
2013-03-25 13:00:00,41.6,23.8,29.61,ENE,67,5.0,8.0,49,0.00,,,-99.99,WeatherLink 5.5,2013-03-25 17:00:00,
2013-03-25 13:15:00,41.5,23.7,29.61,NNE,22,3.0,9.0,49,0.00,,,-99.99,WeatherLink 5.5,2013-03-25 17:15:00,
2013-03-25 13:30:00,42.5,25.1,29.61,ENE,67,5.0,11.0,50,0.00,,,-99.99,WeatherLink 5.5,2013-03-25 17:30:00,
2013-03-25 13:45:00,43.3,25.4,29.60,ENE,67,4.0,9.0,49,0.00,,,-99.99,WeatherLink 5.5,2013-03-25 17:45:00,
2013-03-25 14:00:00,42.8,24.4,29.59,ENE,67,6.0,11.0,48,0.00,,,-99.99,WeatherLink 5.5,2013-03-25 18:00:00,
2013-03-25 14:15:00,43.0,24.6,29.58,NE,45,4.0,10.0,48,0.00,,,-99.99,WeatherLink 5.5,2013-03-25 18:15:00,
2013-03-25 14:30:00,42.9,25.0,29.58,ENE,67,6.0,14.0,49,0.00,,,-99.99,WeatherLink 5.5,2013-03-25 18:30:00,
2013-03-25 14:45:00,42.9,25.5,29.58,ENE,67,4.0,10.0,50,0.00,,,-99.99,WeatherLink 5.5,2013-03-25 18:45:00,
2013-03-25 15:00:00,42.2,26.3,29.58,ENE,67,5.0,11.0,53,0.00,,,-99.99,WeatherLink 5.5,2013-03-25 19:00:00,
2013-03-25 15:15:00,41.9,25.5,29.57,ENE,67,9.0,18.0,52,0.00,,,-99.99,WeatherLink 5.5,2013-03-25 19:15:00,
2013-03-25 15:30:00,41.0,26.1,29.56,NE,45,7.0,13.0,55,0.00,,,-99.99,WeatherLink 5.5,2013-03-25 19:30:00,
2013-03-25 15:45:00,41.5,25.6,29.55,NE,45,7.0,16.0,53,0.00,,,-99.99,WeatherLink 5.5,2013-03-25 19:45:00,
2013-03-25 16:00:00,41.2,25.3,29.53,ENE,67,8.0,17.0,53,0.00,,,-99.99,WeatherLink 5.5,2013-03-25 20:00:00,
2013-03-25 16:15:00,41.3,25.0,29.51,ENE,67,7.0,15.0,52,0.00,,,-99.99,WeatherLink 5.5,2013-03-25 20:15:00,
2013-03-25 16:30:00,41.6,24.3,29.50,NNE,22,7.0,16.0,50,0.00,,,-99.99,WeatherLink 5.5,2013-03-25 20:30:00,
2013-03-25 16:45:00,41.2,24.4,29.50,NE,45,8.0,16.0,51,0.00,,,-99.99,WeatherLink 5.5,2013-03-25 20:45:00,
2013-03-25 17:00:00,41.2,24.9,29.51,North,0,6.0,16.0,52,0.00,,,-99.99,WeatherLink 5.5,2013-03-25 21:00:00,
2013-03-25 17:15:00,40.6,24.8,29.51,ENE,67,4.0,11.0,53,0.00,,,-99.99,WeatherLink 5.5,2013-03-25 21:15:00,
2013-03-25 17:30:00,40.0,24.7,29.51,NE,45,5.0,15.0,54,0.00,,,-99.99,WeatherLink 5.5,2013-03-25 21:30:00,
2013-03-25 17:45:00,40.3,25.4,29.52,NNE,22,2.0,9.0,55,0.00,,,-99.99,WeatherLink 5.5,2013-03-25 21:45:00,
2013-03-25 18:00:00,39.9,24.6,29.51,NNE,22,5.0,11.0,54,0.00,,,-99.99,WeatherLink 5.5,2013-03-25 22:00:00,
2013-03-25 18:15:00,39.3,24.0,29.52,NE,45,5.0,10.0,54,0.00,,,-99.99,WeatherLink 5.5,2013-03-25 22:15:00,
2013-03-25 18:30:00,39.3,24.5,29.52,ENE,67,1.0,6.0,55,0.00,,,-99.99,WeatherLink 5.5,2013-03-25 22:30:00,
2013-03-25 18:45:00,39.3,24.5,29.53,NE,45,4.0,9.0,55,0.00,,,-99.99,WeatherLink 5.5,2013-03-25 22:45:00,
2013-03-25 19:00:00,39.0,24.2,29.53,NNE,22,1.0,6.0,55,0.00,,,-99.99,WeatherLink 5.5,2013-03-25 23:00:00,
2013-03-25 19:15:00,38.9,24.5,29.53,NE,45,1.0,7.0,56,0.00,,,-99.99,WeatherLink 5.5,2013-03-25 23:15:00,
2013-03-25 19:30:00,38.8,24.4,29.53,NNE,22,1.0,6.0,56,0.00,,,-99.99,WeatherLink 5.5,2013-03-25 23:30:00,
2013-03-25 19:45:00,38.5,23.7,29.53,NE,45,2.0,11.0,55,0.00,,,-99.99,WeatherLink 5.5,2013-03-25 23:45:00,
2013-03-25 20:00:00,38.3,24.0,29.53,NE,45,1.0,8.0,56,0.00,,,-99.99,WeatherLink 5.5,2013-03-26 00:00:00,
2013-03-25 20:15:00,38.2,24.3,29.53,NE,45,1.0,9.0,57,0.00,,,-99.99,WeatherLink 5.5,2013-03-26 00:15:00,
2013-03-25 20:30:00,38.0,24.1,29.54,ENE,67,0.0,2.0,57,0.00,,,-99.99,WeatherLink 5.5,2013-03-26 00:30:00,
2013-03-25 20:45:00,37.9,24.0,29.55,NE,45,1.0,8.0,57,0.00,,,-99.99,WeatherLink 5.5,2013-03-26 00:45:00,
2013-03-25 21:00:00,37.7,24.2,29.55,NNE,22,0.0,4.0,58,0.00,,,-99.99,WeatherLink 5.5,2013-03-26 01:00:00,
2013-03-25 21:15:00,37.6,23.3,29.55,NE,45,2.0,8.0,56,0.00,,,-99.99,WeatherLink 5.5,2013-03-26 01:15:00,
2013-03-25 21:30:00,37.5,23.6,29.55,WNW,292,0.0,7.0,57,0.00,,,-99.99,WeatherLink 5.5,2013-03-26 01:30:00,
2013-03-25 21:45:00,37.3,23.4,29.55,NE,45,1.0,8.0,57,0.00,,,-99.99,WeatherLink 5.5,2013-03-26 01:45:00,
2013-03-25 22:00:00,37.2,23.8,29.55,NE,45,0.0,1.0,58,0.00,,,-99.99,WeatherLink 5.5,2013-03-26 02:00:00,
2013-03-25 22:15:00,37.2,23.8,29.55,WNW,292,1.0,6.0,58,0.00,,,-99.99,WeatherLink 5.5,2013-03-26 02:15:00,
2013-03-25 22:30:00,37.0,23.2,29.55,WNW,292,0.0,1.0,57,0.00,,,-99.99,WeatherLink 5.5,2013-03-26 02:30:00,
2013-03-25 22:45:00,37.0,23.2,29.54,North,-999,0.0,0.0,57,0.00,,,-99.99,WeatherLink 5.5,2013-03-26 02:45:00,
2013-03-25 23:00:00,37.2,22.9,29.54,WNW,292,0.0,4.0,56,0.00,,,-99.99,WeatherLink 5.5,2013-03-26 03:00:00,
2013-03-25 23:15:00,37.2,22.5,29.53,NW,315,1.0,8.0,55,0.00,,,-99.99,WeatherLink 5.5,2013-03-26 03:15:00,
2013-03-25 23:30:00,37.2,22.5,29.53,North,-999,0.0,0.0,55,0.00,,,-99.99,WeatherLink 5.5,2013-03-26 03:30:00,
2013-03-25 23:45:00,37.2,22.5,29.53,WSW,247,0.0,4.0,55,0.00,,,-99.99,WeatherLink 5.5,2013-03-26 03:45:00,